Time;durP1;ratioP1;P1;durP2;ratioP2;P2;SDS_P1;SDS_P2;PMS_P1;PMS_P2;Temp;Humidity;BMP_temperature;BMP_pressure;BME280_temperature;BME280_humidity;BME280_pressure;Samples;Min_cycle;Max_cycle;Signal;HPM_P1;HPM_P2
2023/07/21 00:00:59;;;;;;;4.93;2.10;;;;;;;22.83;44.08;100072.31;4080922;29;20039;-63
2023/07/21 00:03:02;;;;;;;2.08;1.33;;;;;;;22.79;44.42;100070.69;4076423;29;20095;-64
2023/07/21 00:05:07;;;;;;;3.35;1.90;;;;;;;22.76;44.75;100071.69;4078255;29;20054;-64
2023/07/21 00:07:11;;;;;;;4.18;2.13;;;;;;;22.75;44.42;100063.81;4078164;29;20052;-63
2023/07/21 00:09:14;;;;;;;4.63;1.88;;;;;;;22.73;44.58;100061.22;4079440;29;20046;-64
2023/07/21 00:11:17;;;;;;;5.23;1.83;;;;;;;22.75;44.66;100063.81;4081175;29;20135;-63
2023/07/21 00:13:20;;;;;;;3.28;1.70;;;;;;;22.76;45.18;100061.09;4063488;29;20336;-63
2023/07/21 00:15:23;;;;;;;2.00;1.80;;;;;;;22.74;45.42;100062.09;4063210;29;20044;-64
2023/07/21 00:17:27;;;;;;;3.05;1.73;;;;;;;22.73;45.66;100065.66;4067474;29;20031;-64
2023/07/21 00:19:30;;;;;;;4.57;1.80;;;;;;;22.70;45.82;100060.50;4079620;29;20126;-63
2023/07/21 00:21:34;;;;;;;5.07;1.83;;;;;;;22.66;45.94;100060.63;4079864;29;20051;-63
2023/07/21 00:23:38;;;;;;;2.67;1.77;;;;;;;22.62;45.85;100058.19;4082169;29;20065;-63
2023/07/21 00:25:41;;;;;;;5.10;1.90;;;;;;;22.53;45.76;100062.09;4065748;29;20036;-63
2023/07/21 00:27:45;;;;;;;4.38;1.88;;;;;;;22.48;46.14;100064.91;4081267;29;20371;-64
2023/07/21 00:29:49;;;;;;;6.25;1.63;;;;;;;22.46;46.45;100057.97;4082672;29;20061;-63
2023/07/21 00:31:53;;;;;;;2.22;1.90;;;;;;;22.49;46.63;100057.84;4066777;29;20107;-63
2023/07/21 00:33:56;;;;;;;4.55;1.80;;;;;;;22.51;46.72;100063.06;4067481;29;21544;-63
2023/07/21 00:35:58;;;;;;;3.80;2.13;;;;;;;22.48;47.00;100056.09;4080132;29;20036;-64
2023/07/21 00:38:01;;;;;;;7.18;2.03;;;;;;;22.46;46.99;100065.91;4068243;29;20099;-64
2023/07/21 00:40:09;;;;;;;4.70;2.10;;;;;;;22.47;46.72;100057.03;4082171;29;20043;-64
2023/07/21 00:42:12;;;;;;;4.95;1.88;;;;;;;22.44;47.00;100050.09;4081097;29;20103;-64
2023/07/21 00:44:15;;;;;;;4.80;2.30;;;;;;;22.45;47.05;100057.09;4086649;29;20091;-63
2023/07/21 00:46:19;;;;;;;8.77;2.63;;;;;;;22.45;47.24;100057.09;4082229;29;20044;-63
2023/07/21 00:48:22;;;;;;;7.53;2.33;;;;;;;22.42;47.23;100054.56;4068208;29;20063;-63
2023/07/21 00:50:26;;;;;;;4.97;2.20;;;;;;;22.39;47.54;100045.91;4068267;29;20039;-63
2023/07/21 00:52:29;;;;;;;5.07;2.70;;;;;;;22.40;47.77;100047.59;4064603;29;20043;-63
2023/07/21 00:54:33;;;;;;;13.45;2.47;;;;;;;22.35;47.68;100039.00;4066895;29;20036;-63
2023/07/21 00:56:37;;;;;;;5.13;2.10;;;;;;;22.35;48.14;100039.00;4080804;29;20412;-63
2023/07/21 00:58:40;;;;;;;7.13;2.40;;;;;;;22.28;48.32;100043.66;4069681;29;20300;-63
2023/07/21 01:00:43;;;;;;;7.28;2.50;;;;;;;22.24;48.23;100039.41;4080255;29;20039;-63
2023/07/21 01:02:49;;;;;;;6.40;2.50;;;;;;;22.20;48.42;100037.81;4082300;29;20466;-63
2023/07/21 01:04:54;;;;;;;11.75;3.25;;;;;;;22.18;48.74;100037.00;4080695;29;20040;-63
2023/07/21 01:06:58;;;;;;;;;;;;;;;22.04;49.05;100035.78;4067562;29;20098;-63
2023/07/21 01:09:04;;;;;;;10.40;2.92;;;;;;;22.08;48.89;100036.53;4080175;29;19974;-63
2023/07/21 01:11:10;;;;;;;8.38;2.95;;;;;;;22.10;48.75;100039.97;4081969;29;20046;-63
2023/07/21 01:13:16;;;;;;;10.55;3.20;;;;;;;22.10;48.08;100035.53;4064962;29;20032;-64
2023/07/21 01:15:20;;;;;;;6.30;2.55;;;;;;;22.07;47.71;100032.16;4080228;29;20039;-63
2023/07/21 01:17:25;;;;;;;6.90;2.67;;;;;;;21.98;47.89;100030.75;4066590;29;20043;-63
2023/07/21 01:19:30;;;;;;;6.00;2.50;;;;;;;22.02;47.67;100028.81;4081014;29;20039;-63
2023/07/21 01:21:38;;;;;;;5.85;2.40;;;;;;;22.05;47.85;100020.75;4082418;29;20038;-63
2023/07/21 01:23:45;;;;;;;8.05;2.35;;;;;;;22.03;48.67;100026.13;4078950;29;20039;-64
2023/07/21 01:25:52;;;;;;;4.93;2.60;;;;;;;22.01;49.19;100025.31;4081192;29;20044;-64
2023/07/21 01:27:56;;;;;;;7.55;2.85;;;;;;;21.95;49.67;100026.44;4081347;29;20589;-63
2023/07/21 01:30:02;;;;;;;7.07;2.63;;;;;;;21.92;49.54;100023.06;4075639;29;20078;-64
2023/07/21 01:32:08;;;;;;;7.25;2.50;;;;;;;21.94;49.22;100019.41;4081092;29;20051;-63
2023/07/21 01:34:14;;;;;;;4.22;2.20;;;;;;;21.93;49.11;100023.00;4077922;29;20043;-63
2023/07/21 01:36:18;;;;;;;9.98;2.40;;;;;;;21.93;48.83;100017.69;4078850;29;20455;-62
2023/07/21 01:38:22;;;;;;;4.13;2.40;;;;;;;21.92;48.73;100010.69;4049693;29;20044;-63
2023/07/21 01:40:26;;;;;;;4.13;2.25;;;;;;;21.90;48.54;100012.53;4049365;29;20055;-62
2023/07/21 01:42:31;;;;;;;3.88;2.08;;;;;;;21.87;48.21;100011.78;4065277;29;20067;-64
2023/07/21 01:44:35;;;;;;;3.92;2.38;;;;;;;21.82;48.05;100005.81;4065388;29;20044;-63
2023/07/21 01:46:38;;;;;;;4.25;2.15;;;;;;;21.81;48.33;100006.75;4083579;29;20127;-63
2023/07/21 01:48:41;;;;;;;4.90;2.17;;;;;;;21.78;48.60;100007.72;4064925;29;20462;-63
2023/07/21 01:50:45;;;;;;;5.90;1.77;;;;;;;21.81;48.71;100006.75;4080760;29;20091;-63
2023/07/21 01:52:49;;;;;;;3.75;2.35;;;;;;;21.79;48.68;100004.16;4065450;29;20040;-63
2023/07/21 01:54:57;;;;;;;;;;;;;;;21.67;48.79;100004.63;4066817;29;20581;-63
2023/07/21 01:57:04;;;;;;;4.20;1.90;;;;;;;21.69;48.70;100002.78;4080790;29;20026;-63
2023/07/21 01:59:12;;;;;;;4.82;2.20;;;;;;;21.71;48.78;100009.75;4063934;29;20060;-63
2023/07/21 02:01:17;;;;;;;7.70;2.28;;;;;;;21.71;48.77;100000.94;4081095;29;20123;-63
2023/07/21 02:03:22;;;;;;;3.47;2.15;;;;;;;21.75;48.97;100008.69;4079156;29;20047;-63
2023/07/21 02:05:26;;;;;;;8.57;2.38;;;;;;;21.72;49.30;100000.03;4064755;29;20501;-63
2023/07/21 02:07:30;;;;;;;5.18;2.47;;;;;;;21.69;49.61;100002.78;4064831;29;20318;-63
2023/07/21 02:09:33;;;;;;;5.57;2.17;;;;;;;21.66;49.82;100003.78;4065198;29;20070;-63
2023/07/21 02:11:35;;;;;;;8.60;2.80;;;;;;;21.65;50.04;100006.47;4082269;29;20039;-63
2023/07/21 02:13:47;;;;;;;6.95;2.28;;;;;;;21.62;50.30;100007.44;4078928;29;20051;-63
2023/07/21 02:15:51;;;;;;;9.10;2.30;;;;;;;21.59;50.58;100016.34;4080210;29;20107;-63
2023/07/21 02:17:54;;;;;;;6.10;2.20;;;;;;;21.60;50.75;100004.00;4066089;29;20040;-63
2023/07/21 02:19:59;;;;;;;6.53;2.42;;;;;;;21.57;51.06;100005.00;4074338;29;20115;-63
2023/07/21 02:22:02;;;;;;;3.97;2.20;;;;;;;21.53;50.78;100008.66;4081988;29;20426;-63
2023/07/21 02:24:07;;;;;;;4.50;2.13;;;;;;;21.53;50.59;100006.03;4063495;29;20134;-63
2023/07/21 02:26:10;;;;;;;10.88;2.38;;;;;;;21.51;50.65;100015.81;4079018;28;20548;-63
2023/07/21 02:28:13;;;;;;;4.30;2.22;;;;;;;21.51;50.63;100007.88;4079991;29;20044;-63
2023/07/21 02:30:15;;;;;;;5.75;1.92;;;;;;;21.50;49.90;99995.53;4064458;29;20517;-63
2023/07/21 02:32:20;;;;;;;4.78;2.13;;;;;;;21.50;49.76;99995.53;4065157;29;20036;-63
2023/07/21 02:34:22;;;;;;;3.78;2.35;;;;;;;21.47;50.01;99985.06;4080837;29;20059;-63
2023/07/21 02:36:25;;;;;;;4.70;2.25;;;;;;;;;;4077219;29;20044;-63
2023/07/21 02:38:29;;;;;;;7.03;2.90;;;;;;;21.47;49.18;99987.72;4048270;29;20594;-63
2023/07/21 02:40:32;;;;;;;4.55;2.25;;;;;;;21.47;49.66;99982.44;4064689;29;20082;-63
2023/07/21 02:42:35;;;;;;;4.70;2.20;;;;;;;21.43;50.28;99994.88;4049297;29;20108;-63
2023/07/21 02:44:38;;;;;;;5.18;2.20;;;;;;;21.36;50.01;99990.78;4055388;29;20433;-63
2023/07/21 02:46:42;;;;;;;6.72;2.50;;;;;;;21.35;50.36;99988.16;4048248;29;20048;-63
2023/07/21 02:48:46;;;;;;;4.80;2.55;;;;;;;21.36;49.75;99989.91;4080009;29;20039;-63
2023/07/21 02:50:51;;;;;;;4.35;2.60;;;;;;;21.23;50.51;99987.75;4068331;29;20051;-63
2023/07/21 02:52:55;;;;;;;4.75;2.08;;;;;;;21.21;50.39;99994.84;4083964;29;20051;-63
2023/07/21 02:54:58;;;;;;;3.90;2.33;;;;;;;21.17;50.11;99987.94;4080563;29;20083;-63
2023/07/21 02:57:01;;;;;;;5.68;2.20;;;;;;;21.26;50.79;99992.91;4063498;29;20044;-63
2023/07/21 02:59:03;;;;;;;5.10;2.75;;;;;;;21.42;50.39;99993.19;4079428;29;20494;-63
2023/07/21 03:01:06;;;;;;;4.35;2.65;;;;;;;21.48;49.31;100000.03;4121686;23;20043;-60
2023/07/21 03:03:14;;;;;;;3.97;2.53;;;;;;;21.43;48.92;99988.75;4116990;28;20051;-61
2023/07/21 03:05:22;;;;;;;6.80;2.55;;;;;;;21.49;49.21;99980.56;4127417;28;20038;-61
2023/07/21 03:07:25;;;;;;;3.63;2.20;;;;;;;21.54;49.06;99983.94;4126165;28;20071;-61
2023/07/21 03:09:36;;;;;;;5.05;2.33;;;;;;;21.59;49.07;99981.97;4123711;28;20070;-61
2023/07/21 03:11:45;;;;;;;3.38;2.38;;;;;;;21.65;48.99;99985.31;4110460;28;20051;-61
2023/07/21 03:13:57;;;;;;;6.18;2.38;;;;;;;21.67;48.75;99983.47;4101943;28;20110;-61
2023/07/21 03:16:02;;;;;;;4.53;2.20;;;;;;;21.72;48.72;99981.50;4111115;28;20436;-61
2023/07/21 03:18:08;;;;;;;5.40;2.78;;;;;;;21.74;48.54;99974.34;4109212;28;20525;-61
2023/07/21 03:20:25;;;;;;;9.00;2.33;;;;;;;21.69;48.27;99976.34;4107434;28;20043;-61
2023/07/21 03:22:28;;;;;;;4.25;1.98;;;;;;;21.68;47.94;99985.19;4094375;29;20039;-61
2023/07/21 03:24:32;;;;;;;3.85;2.28;;;;;;;21.67;47.99;99988.75;4106170;28;20118;-61
2023/07/21 03:26:35;;;;;;;3.13;2.22;;;;;;;21.56;48.58;99992.69;4106833;28;20109;-61
2023/07/21 03:28:38;;;;;;;4.10;2.13;;;;;;;21.46;49.07;99993.91;4105544;28;20074;-61
2023/07/21 03:30:41;;;;;;;5.25;2.35;;;;;;;21.28;49.27;99993.69;4120329;28;20038;-61
2023/07/21 03:32:56;;;;;;;4.25;2.20;;;;;;;21.22;49.61;100001.88;4104453;28;20035;-61
2023/07/21 03:35:02;;;;;;;5.22;2.42;;;;;;;21.27;49.67;100001.69;4103421;28;21443;-61
2023/07/21 03:37:08;;;;;;;11.50;2.47;;;;;;;21.34;49.51;100004.97;4109473;28;20558;-61
2023/07/21 03:39:11;;;;;;;5.68;1.95;;;;;;;21.36;49.85;100014.59;4110017;28;20031;-61
2023/07/21 03:41:13;;;;;;;4.55;2.47;;;;;;;21.26;49.23;100014.06;4109677;28;20039;-62
2023/07/21 03:43:19;;;;;;;3.75;2.42;;;;;;;21.28;49.19;99999.00;4086491;28;20062;-61
2023/07/21 03:45:23;;;;;;;5.10;2.55;;;;;;;21.40;49.37;99999.44;4118465;28;20420;-61
2023/07/21 03:47:26;;;;;;;6.03;2.40;;;;;;;21.41;50.24;99998.53;4108360;28;20125;-61
2023/07/21 03:49:35;;;;;;;6.35;2.10;;;;;;;21.46;49.93;100001.84;4122755;28;20057;-61
2023/07/21 03:51:44;;;;;;;6.20;2.45;;;;;;;21.37;49.68;100016.28;4110440;28;20053;-60
2023/07/21 03:53:51;;;;;;;5.70;2.60;;;;;;;21.32;49.05;100020.03;4105853;28;20043;-60
2023/07/21 03:55:58;;;;;;;8.40;3.15;;;;;;;21.32;49.24;100025.31;4104287;28;20092;-61
2023/07/21 03:58:02;;;;;;;4.10;2.05;;;;;;;21.31;49.14;100036.81;4107466;28;20045;-61
2023/07/21 04:00:07;;;;;;;3.88;2.63;;;;;;;21.24;49.32;100042.31;4106429;28;20527;-62
2023/07/21 04:02:17;;;;;;;3.00;2.20;;;;;;;21.08;49.94;100046.44;4111305;28;20417;-61
2023/07/21 04:04:20;;;;;;;3.45;2.45;;;;;;;21.01;50.34;100044.94;4104562;28;20129;-61
2023/07/21 04:06:24;;;;;;;3.85;2.47;;;;;;;21.06;51.13;100040.38;4121210;28;20046;-64
2023/07/21 04:08:28;;;;;;;3.95;2.45;;;;;;;21.16;50.96;100052.31;4107431;28;20046;-64
2023/07/21 04:10:32;;;;;;;5.63;2.80;;;;;;;21.28;51.21;100057.16;4111683;28;20117;-64
2023/07/21 04:12:35;;;;;;;7.30;3.58;;;;;;;21.47;50.53;100045.91;4096973;29;20174;-64
2023/07/21 04:14:38;;;;;;;4.50;2.35;;;;;;;21.54;50.94;100047.44;4112775;28;20133;-64
2023/07/21 04:16:41;;;;;;;7.47;2.95;;;;;;;21.64;50.92;100036.50;4113337;28;20185;-63
2023/07/21 04:18:44;;;;;;;5.18;2.92;;;;;;;21.73;51.63;100044.09;4104566;28;20039;-64
2023/07/21 04:20:48;;;;;;;14.68;3.75;;;;;;;21.83;52.54;100026.94;4122817;28;20066;-64
2023/07/21 04:22:50;;;;;;;11.47;3.60;;;;;;;21.91;53.02;100034.56;4110021;28;20066;-64
2023/07/21 04:24:54;;;;;;;11.38;3.72;;;;;;;21.96;53.41;100029.94;4097824;28;20315;-64
2023/07/21 04:27:00;;;;;;;7.65;3.83;;;;;;;22.01;53.63;100032.41;4112351;28;20059;-64
2023/07/21 04:29:04;;;;;;;8.15;3.78;;;;;;;22.03;54.41;100033.19;4093457;29;20126;-64
2023/07/21 04:31:10;;;;;;;6.43;3.30;;;;;;;21.97;54.67;100024.56;4109240;28;20041;-65
2023/07/21 04:33:40;;;;;;;8.52;4.13;;;;;;;21.90;55.56;100023.13;4106452;28;20078;-61
2023/07/21 04:35:46;;;;;;;;;;;;;;;21.54;56.91;100030.72;4112518;28;20393;-61
2023/07/21 04:38:26;;;;;;;5.60;3.55;;;;;;;21.22;57.58;100028.31;4111189;28;19929;-61
2023/07/21 04:40:38;;;;;;;9.57;3.97;;;;;;;20.97;58.34;100030.09;4114541;28;20035;-61
2023/07/21 04:42:43;;;;;;;12.68;4.55;;;;;;;20.91;59.26;100029.41;4116091;28;20090;-62
2023/07/21 04:44:48;;;;;;;9.20;4.13;;;;;;;20.83;59.35;100023.53;4103741;28;20047;-62
2023/07/21 04:46:51;;;;;;;13.07;4.72;;;;;;;20.81;59.64;100025.38;4113128;28;20070;-62
2023/07/21 04:48:58;;;;;;;9.55;4.65;;;;;;;20.65;59.76;100025.03;4112154;28;20077;-62
2023/07/21 04:51:10;;;;;;;9.23;4.30;;;;;;;20.56;60.13;100028.84;4107704;28;20043;-61
2023/07/21 04:53:12;;;;;;;6.72;4.32;;;;;;;20.50;60.22;100034.34;4109816;28;20101;-61
2023/07/21 04:55:16;;;;;;;6.60;4.13;;;;;;;20.50;60.80;100026.41;4116318;28;20153;-61
2023/07/21 04:57:19;;;;;;;5.90;3.80;;;;;;;20.44;61.01;100031.88;4115968;28;20063;-61
2023/07/21 04:59:25;;;;;;;7.30;4.13;;;;;;;20.43;61.84;100024.88;4116164;28;20043;-61
2023/07/21 05:01:32;;;;;;;7.93;4.25;;;;;;;20.37;61.94;100033.88;4116119;28;20496;-61
2023/07/21 05:03:35;;;;;;;7.35;4.88;;;;;;;20.37;62.13;100033.88;4116233;28;20039;-61
2023/07/21 05:05:38;;;;;;;15.52;4.25;;;;;;;20.31;61.99;100030.56;4100067;29;20130;-61
2023/07/21 05:07:42;;;;;;;6.83;4.30;;;;;;;20.15;62.50;100028.44;4115167;28;20043;-61
2023/07/21 05:09:45;;;;;;;7.80;4.25;;;;;;;20.13;63.44;100032.88;4104013;28;20804;-62
2023/07/21 05:11:50;;;;;;;10.75;5.20;;;;;;;20.21;63.60;100025.59;4115949;28;20038;-61
2023/07/21 05:14:24;;;;;;;8.27;4.07;;;;;;;20.29;63.35;100013.94;4115870;28;20055;-61
2023/07/21 05:16:39;;;;;;;5.63;4.03;;;;;;;20.32;63.71;100016.47;4115649;28;20059;-61
2023/07/21 05:18:57;;;;;;;6.35;4.80;;;;;;;20.28;63.82;100009.56;4117077;28;20081;-62
2023/07/21 05:21:36;;;;;;;6.90;4.68;;;;;;;20.35;63.88;100011.06;4078221;29;20064;-62
2023/07/21 05:23:57;;;;;;;8.88;4.82;;;;;;;20.30;64.18;100013.03;4094139;28;20053;-62
2023/07/21 05:26:01;;;;;;;7.90;4.40;;;;;;;20.37;64.35;100009.22;4108303;28;20129;-62
2023/07/21 05:28:10;;;;;;;5.80;4.10;;;;;;;20.45;64.47;100015.13;4112624;28;20568;-62
2023/07/21 05:30:17;;;;;;;8.40;4.32;;;;;;;20.51;64.51;100003.50;4130418;28;20440;-62
2023/07/21 05:32:26;;;;;;;7.07;4.43;;;;;;;20.56;64.72;100004.22;4113730;28;20093;-62
2023/07/21 05:34:43;;;;;;;11.23;4.97;;;;;;;20.63;63.01;100000.41;4111113;28;20105;-62
2023/07/21 05:36:46;;;;;;;10.70;4.90;;;;;;;20.57;61.83;99990.06;4089752;29;20039;-62
2023/07/21 05:38:49;;;;;;;9.98;5.10;;;;;;;20.48;62.28;99985.13;4122354;28;20515;-62
2023/07/21 05:40:58;;;;;;;8.95;5.20;;;;;;;20.49;62.48;99987.72;4129056;28;20049;-62
2023/07/21 05:43:04;;;;;;;9.27;4.22;;;;;;;20.55;63.05;99987.50;4111743;28;20113;-62
2023/07/21 05:45:09;;;;;;;10.50;4.07;;;;;;;20.65;63.86;99989.84;4113312;28;20046;-62
2023/07/21 05:47:15;;;;;;;7.45;3.95;;;;;;;20.71;63.96;99987.00;4113090;28;20452;-62
2023/07/21 05:49:20;;;;;;;6.07;3.70;;;;;;;20.77;63.69;99999.97;4147612;28;20050;-62
2023/07/21 05:51:23;;;;;;;5.45;3.60;;;;;;;20.79;63.70;99995.50;4147494;28;20042;-62
2023/07/21 05:53:30;;;;;;;9.18;4.10;;;;;;;20.80;63.73;99997.22;4131384;28;20571;-62
2023/07/21 05:55:37;;;;;;;8.77;4.50;;;;;;;20.79;63.89;99992.00;4131344;28;20077;-62
2023/07/21 05:57:39;;;;;;;6.82;4.10;;;;;;;20.85;63.84;99994.41;4130995;28;20042;-61
2023/07/21 05:59:43;;;;;;;7.88;5.03;;;;;;;20.88;64.09;99995.19;4115128;28;20070;-61
2023/07/21 06:01:45;;;;;;;7.82;4.53;;;;;;;20.98;63.99;99993.06;4114407;28;20097;-64
2023/07/21 06:03:50;;;;;;;6.88;4.78;;;;;;;20.98;64.19;100000.97;4115192;28;20121;-61
2023/07/21 06:05:53;;;;;;;7.60;4.47;;;;;;;20.93;63.68;100002.94;4097832;29;20102;-61
2023/07/21 06:08:25;;;;;;;7.32;4.07;;;;;;;20.93;64.56;99997.66;4109104;28;20038;-61
2023/07/21 06:10:41;;;;;;;9.15;4.60;;;;;;;20.99;64.68;99992.13;4105337;28;20501;-62
2023/07/21 06:12:55;;;;;;;7.77;5.03;;;;;;;21.05;63.10;99997.19;4104651;28;20049;-62
2023/07/21 06:15:08;;;;;;;7.55;5.57;;;;;;;21.07;62.52;99997.13;4105899;28;20035;-62
2023/07/21 06:17:25;;;;;;;8.73;5.55;;;;;;;21.07;61.42;99999.78;4108248;28;20046;-62
2023/07/21 06:19:31;;;;;;;9.18;6.15;;;;;;;21.04;61.03;99995.50;4095299;28;20039;-61
2023/07/21 06:21:35;;;;;;;12.93;6.03;;;;;;;21.08;60.61;100001.50;4111679;28;20042;-62
2023/07/21 06:23:38;;;;;;;10.60;5.68;;;;;;;21.08;60.47;99990.94;4111370;28;20042;-61
2023/07/21 06:25:41;;;;;;;7.75;5.57;;;;;;;21.12;59.99;100000.50;4111319;28;20043;-61
2023/07/21 06:27:48;;;;;;;7.38;5.32;;;;;;;21.15;60.47;99996.88;4109940;28;20140;-61
2023/07/21 06:29:53;;;;;;;8.20;5.50;;;;;;;21.19;61.67;99996.69;4107982;28;20111;-61
2023/07/21 06:32:00;;;;;;;8.18;5.20;;;;;;;21.29;61.32;99997.22;4110028;28;20035;-61
2023/07/21 06:34:30;;;;;;;12.85;5.28;;;;;;;21.39;61.75;99997.72;4111035;28;20047;-62
2023/07/21 06:36:44;;;;;;;10.05;5.57;;;;;;;21.46;61.37;100007.16;4104430;28;20859;-61
2023/07/21 06:39:05;;;;;;;6.80;4.53;;;;;;;21.50;62.24;100006.13;4112481;28;20039;-61
2023/07/21 06:41:25;;;;;;;12.35;5.72;;;;;;;21.57;62.72;100004.13;4108359;28;20496;-61
2023/07/21 06:43:48;;;;;;;13.68;5.53;;;;;;;21.63;62.76;100003.03;4114316;28;20058;-61
2023/07/21 06:45:59;;;;;;;7.72;4.55;;;;;;;21.70;62.79;100017.72;4114859;28;20043;-61
2023/07/21 06:48:25;;;;;;;7.80;5.53;;;;;;;21.82;62.34;100011.97;4100245;28;20055;-61
2023/07/21 06:50:44;;;;;;;8.20;5.13;;;;;;;21.88;61.82;100008.22;4098568;29;20505;-61
2023/07/21 06:52:47;;;;;;;7.32;4.70;;;;;;;21.90;61.97;100014.31;4107611;28;20492;-61
2023/07/21 06:54:52;;;;;;;11.35;5.78;;;;;;;22.01;61.93;100009.44;4130602;28;20038;-62
2023/07/21 06:56:54;;;;;;;9.40;5.47;;;;;;;21.92;60.88;100015.97;4114211;28;20085;-61
2023/07/21 06:58:58;;;;;;;7.57;4.63;;;;;;;21.88;61.39;100018.81;4124350;28;20042;-61
2023/07/21 07:01:01;;;;;;;7.78;5.60;;;;;;;21.82;61.50;100019.91;4096932;29;20043;-61
2023/07/21 07:03:04;;;;;;;8.65;5.03;;;;;;;21.79;61.89;100018.22;4107194;28;20057;-61
2023/07/21 07:05:08;;;;;;;9.40;5.25;;;;;;;21.78;62.51;100015.66;4114318;28;20534;-61
2023/07/21 07:07:12;;;;;;;8.52;4.72;;;;;;;21.77;63.14;100016.56;4115322;28;20457;-61
2023/07/21 07:09:15;;;;;;;12.98;5.85;;;;;;;21.73;63.16;100020.28;4110971;28;20090;-61
2023/07/21 07:11:18;;;;;;;11.75;5.47;;;;;;;21.74;63.04;100021.97;4098192;29;20039;-61
2023/07/21 07:13:21;;;;;;;14.77;5.55;;;;;;;21.68;63.07;100015.13;4098564;29;20505;-61
2023/07/21 07:15:24;;;;;;;8.25;5.10;;;;;;;21.55;62.83;100025.38;4099480;28;20074;-61
2023/07/21 07:17:27;;;;;;;8.00;5.47;;;;;;;21.52;62.89;100025.44;4111068;28;20074;-61
2023/07/21 07:19:31;;;;;;;11.00;6.32;;;;;;;21.47;62.58;100024.75;4112322;28;20034;-61
2023/07/21 07:21:34;;;;;;;9.60;5.90;;;;;;;21.46;63.06;100017.72;4112086;28;20442;-61
2023/07/21 07:23:38;;;;;;;10.27;6.32;;;;;;;21.49;61.17;100022.88;4112381;28;20565;-61
2023/07/21 07:25:41;;;;;;;10.10;5.47;;;;;;;21.46;60.87;100023.00;4111331;28;20065;-60
2023/07/21 07:27:44;;;;;;;7.82;5.13;;;;;;;21.48;60.91;100026.47;4110654;28;20042;-60
2023/07/21 07:29:47;;;;;;;7.63;4.93;;;;;;;21.52;61.38;100028.09;4102628;28;20411;-61
2023/07/21 07:31:49;;;;;;;10.33;4.53;;;;;;;21.60;61.71;100026.03;4114084;28;20043;-61
2023/07/21 07:33:54;;;;;;;7.88;4.72;;;;;;;21.63;62.41;100026.84;4113903;28;20295;-61
2023/07/21 07:35:57;;;;;;;10.45;5.13;;;;;;;21.66;62.40;100029.38;4113055;28;20069;-61
2023/07/21 07:38:00;;;;;;;6.93;4.40;;;;;;;21.67;62.24;100037.25;4113963;28;20408;-61
2023/07/21 07:40:06;;;;;;;8.85;4.85;;;;;;;21.70;62.38;100037.13;4115265;28;20481;-61
2023/07/21 07:42:08;;;;;;;10.23;4.47;;;;;;;21.77;61.88;100033.31;4110507;28;20038;-61
2023/07/21 07:44:11;;;;;;;8.52;4.70;;;;;;;21.81;61.68;100034.06;4117392;28;20460;-61
2023/07/21 07:46:13;;;;;;;8.00;4.88;;;;;;;21.85;61.29;100034.81;4118370;28;20093;-61
2023/07/21 07:48:16;;;;;;;6.30;4.13;;;;;;;21.87;60.00;100038.25;4117000;28;20090;-61
2023/07/21 07:50:20;;;;;;;5.25;3.70;;;;;;;21.89;59.43;100026.69;4117114;28;20386;-61
2023/07/21 07:52:23;;;;;;;9.07;4.67;;;;;;;21.92;59.46;100037.13;4118465;28;20034;-61
2023/07/21 07:54:26;;;;;;;6.65;3.78;;;;;;;21.92;59.03;100038.94;4118345;28;20062;-61
2023/07/21 07:56:30;;;;;;;7.70;3.95;;;;;;;21.93;57.48;100048.56;4118056;28;20047;-61
2023/07/21 07:58:33;;;;;;;7.80;3.40;;;;;;;21.87;56.98;100044.38;4118390;28;20053;-61
2023/07/21 08:00:38;;;;;;;5.25;3.33;;;;;;;21.91;56.76;100051.28;4117085;28;20094;-61
2023/07/21 08:02:41;;;;;;;5.32;3.40;;;;;;;21.96;56.07;100051.97;4118287;28;20049;-61
2023/07/21 08:04:44;;;;;;;5.68;3.45;;;;;;;21.99;56.19;100053.66;4118217;28;20130;-61
2023/07/21 08:06:47;;;;;;;7.68;3.85;;;;;;;22.09;56.18;100059.41;4117869;28;20073;-61
2023/07/21 08:08:50;;;;;;;7.55;3.83;;;;;;;22.18;55.32;100050.25;4118169;28;20142;-61
2023/07/21 08:10:51;;;;;;;7.15;3.00;;;;;;;22.23;54.13;100054.44;4116879;28;20043;-61
2023/07/21 08:12:56;;;;;;;5.38;2.80;;;;;;;22.32;53.14;100058.53;4118161;28;20567;-61
2023/07/21 08:14:59;;;;;;;6.80;3.40;;;;;;;22.47;53.27;100057.03;4117003;28;20076;-61
2023/07/21 08:17:02;;;;;;;7.93;3.50;;;;;;;22.64;52.85;100051.03;4116039;28;20544;-61
2023/07/21 08:19:05;;;;;;;7.90;4.38;;;;;;;22.84;51.56;100052.84;4117780;28;20039;-61
2023/07/21 08:21:18;;;;;;;6.15;3.40;;;;;;;22.88;51.76;100049.13;4111624;28;20050;-61
2023/07/21 08:23:21;;;;;;;12.98;4.75;;;;;;;22.92;51.81;100044.53;4112429;28;20046;-61
2023/07/21 08:25:32;;;;;;;9.85;4.13;;;;;;;22.98;51.74;100049.56;4114114;28;20039;-61
2023/07/21 08:27:35;;;;;;;8.32;3.22;;;;;;;22.94;51.33;100051.50;4114339;28;20043;-62
2023/07/21 08:29:39;;;;;;;6.18;4.32;;;;;;;22.94;50.75;100053.28;4108715;28;20042;-61
2023/07/21 08:31:42;;;;;;;7.25;3.17;;;;;;;22.98;49.98;100047.78;4114330;28;20129;-60
2023/07/21 08:33:45;;;;;;;5.18;2.80;;;;;;;22.99;49.59;100054.78;4112927;28;20471;-61
2023/07/21 08:35:48;;;;;;;4.38;2.75;;;;;;;23.00;49.20;100048.56;4114692;28;20039;-61
2023/07/21 08:37:50;;;;;;;7.65;2.60;;;;;;;23.03;49.40;100055.53;4108288;28;20046;-61
2023/07/21 08:39:53;;;;;;;4.97;2.80;;;;;;;23.08;48.56;100057.97;4111549;28;20046;-61
2023/07/21 08:41:57;;;;;;;4.00;2.88;;;;;;;23.13;49.09;100053.34;4090038;29;20048;-61
2023/07/21 08:44:00;;;;;;;5.28;2.22;;;;;;;23.15;48.22;100060.31;4110248;28;20039;-61
2023/07/21 08:46:08;;;;;;;5.28;3.00;;;;;;;23.31;46.88;100052.53;4112010;28;20506;-61
2023/07/21 08:48:16;;;;;;;4.78;2.42;;;;;;;23.15;48.18;100056.81;4106382;28;20059;-61
2023/07/21 08:50:20;;;;;;;4.30;2.05;;;;;;;23.12;48.59;100055.16;4114835;28;20045;-61
2023/07/21 08:52:23;;;;;;;7.75;2.92;;;;;;;23.08;47.73;100065.94;4107303;28;20385;-61
2023/07/21 08:54:27;;;;;;;4.78;2.20;;;;;;;23.15;48.21;100060.31;4111633;28;20049;-61
2023/07/21 08:56:30;;;;;;;4.78;2.50;;;;;;;23.14;48.33;100061.25;4113725;28;20467;-61
2023/07/21 08:58:33;;;;;;;5.97;2.33;;;;;;;23.15;49.04;100067.41;4112952;28;20043;-61
2023/07/21 09:00:37;;;;;;;3.97;2.65;;;;;;;23.21;48.06;100056.53;4128821;23;21153;-61
2023/07/21 09:02:46;;;;;;;7.07;2.22;;;;;;;23.17;47.42;100055.81;4117355;28;20469;-61
2023/07/21 09:04:49;;;;;;;4.00;2.22;;;;;;;23.28;47.17;100055.31;4117189;28;20043;-61
2023/07/21 09:06:54;;;;;;;9.38;3.08;;;;;;;23.40;46.15;100047.75;4115857;28;20476;-62
2023/07/21 09:08:57;;;;;;;3.60;2.15;;;;;;;23.40;46.44;100055.72;4107005;28;20047;-62
2023/07/21 09:11:00;;;;;;;3.50;2.10;;;;;;;23.43;46.09;100058.22;4084069;29;20139;-62
2023/07/21 09:13:14;;;;;;;4.45;1.83;;;;;;;23.47;46.49;100058.00;4101102;28;20133;-61
2023/07/21 09:15:19;;;;;;;3.80;1.95;;;;;;;23.47;45.83;100057.16;4100025;29;20043;-61
2023/07/21 09:17:23;;;;;;;2.38;1.92;;;;;;;23.49;45.74;100060.59;4109227;28;20057;-62
2023/07/21 09:19:27;;;;;;;4.57;2.17;;;;;;;23.53;45.62;100056.88;4116043;28;20038;-61
2023/07/21 09:21:30;;;;;;;2.80;2.22;;;;;;;23.56;45.69;100055.88;4117908;28;20133;-61
2023/07/21 09:23:33;;;;;;;4.20;2.40;;;;;;;23.58;45.56;100052.19;4133129;28;20066;-61
2023/07/21 09:25:36;;;;;;;5.20;1.88;;;;;;;23.52;45.55;100060.44;4122897;28;20051;-61
2023/07/21 09:27:40;;;;;;;3.03;1.90;;;;;;;23.50;45.08;100052.56;4115532;28;20043;-62
2023/07/21 09:29:43;;;;;;;3.42;2.10;;;;;;;23.60;44.83;100053.00;4116987;28;20074;-61
2023/07/21 09:31:48;;;;;;;2.90;1.65;;;;;;;23.63;44.83;100052.00;4116933;28;20039;-61
2023/07/21 09:33:51;;;;;;;3.53;2.00;;;;;;;23.60;44.46;100058.31;4115895;28;20042;-61
2023/07/21 09:36:09;;;;;;;2.95;1.77;;;;;;;23.65;44.09;100058.94;4113041;28;20070;-61
2023/07/21 09:38:12;;;;;;;2.55;1.88;;;;;;;23.69;43.03;100049.91;4112617;28;20042;-61
2023/07/21 09:40:15;;;;;;;3.30;1.77;;;;;;;23.72;42.33;100043.59;4112541;28;20038;-61
2023/07/21 09:42:22;;;;;;;4.65;1.70;;;;;;;23.86;42.04;100058.91;4113898;28;20078;-61
2023/07/21 09:44:26;;;;;;;2.33;1.50;;;;;;;23.93;42.25;100049.69;4112641;28;20121;-61
2023/07/21 09:46:30;;;;;;;2.45;1.50;;;;;;;23.98;42.58;100045.03;4112744;28;20157;-61